HAL103 KSEA-PHNL
Flight info
| Callsign | HAL103 |
|---|---|
| Flight time | 5h 36m |
| Altitude | 38000 |
| Route | HAROB6 HQM SEDAR FOZZI HEKAB A332 HALLI/N0477F400 A332 AUNTI AHHEE |
| Aircraft | B77L/H-SDE1E2E3FGHIJ2J3J4J5M1RWXY/LB1D1 |
Departure
| Time | 2026-05-07 19:16 |
|---|---|
| Airport | Seattle–Tacoma International Airport (KSEA) |
Arrival
| Time | 2026-05-08 00:53 |
|---|---|
| Airport | Daniel K. Inouye International Airport (PHNL) |
| Time | Latitude | Longitude | Altitude | Speed | Heading |
|---|---|---|---|---|---|
| 2026-05-07 18:29 | 47.43960 | -122.30124 | 393 ft | 0 kts | 239° |
| 2026-05-07 19:03 | 47.43968 | -122.30104 | 393 ft | 4 kts | 238° |
| 2026-05-07 19:03 | 47.43982 | -122.30070 | 394 ft | 4 kts | 238° |
| 2026-05-07 19:03 | 47.43995 | -122.30041 | 391 ft | 4 kts | 260° |
| 2026-05-07 19:03 | 47.43988 | -122.30014 | 386 ft | 4 kts | 321° |
| 2026-05-07 19:04 | 47.43971 | -122.29993 | 390 ft | 1 kts | 315° |
| 2026-05-07 19:04 | 47.43968 | -122.29989 | 390 ft | 1 kts | 315° |
| 2026-05-07 19:07 | 47.43972 | -122.29994 | 403 ft | 2 kts | 315° |
| 2026-05-07 19:07 | 47.43998 | -122.30033 | 390 ft | 9 kts | 315° |
| 2026-05-07 19:07 | 47.44051 | -122.30113 | 393 ft | 2 kts | 306° |
| 2026-05-07 19:07 | 47.44055 | -122.30162 | 390 ft | 8 kts | 263° |
| 2026-05-07 19:08 | 47.44023 | -122.30267 | 392 ft | 14 kts | 246° |
| 2026-05-07 19:08 | 47.43992 | -122.30449 | 390 ft | 22 kts | 269° |
| 2026-05-07 19:08 | 47.43992 | -122.30466 | 389 ft | 0 kts | 270° |
| 2026-05-07 19:09 | 47.43992 | -122.30468 | 389 ft | 1 kts | 270° |
| 2026-05-07 19:10 | 47.43992 | -122.30469 | 389 ft | 1 kts | 270° |
| 2026-05-07 19:10 | 47.43992 | -122.30524 | 389 ft | 10 kts | 270° |
| 2026-05-07 19:11 | 47.44031 | -122.30627 | 389 ft | 15 kts | 337° |
| 2026-05-07 19:11 | 47.44151 | -122.30637 | 391 ft | 20 kts | 0° |
| 2026-05-07 19:11 | 47.44303 | -122.30636 | 395 ft | 23 kts | 0° |
| 2026-05-07 19:11 | 47.44464 | -122.30635 | 397 ft | 23 kts | 0° |
| 2026-05-07 19:12 | 47.44628 | -122.30634 | 404 ft | 24 kts | 0° |
| 2026-05-07 19:12 | 47.44792 | -122.30632 | 409 ft | 24 kts | 0° |
| 2026-05-07 19:12 | 47.44958 | -122.30630 | 409 ft | 24 kts | 0° |
| 2026-05-07 19:12 | 47.45124 | -122.30628 | 414 ft | 24 kts | 0° |
| 2026-05-07 19:13 | 47.45290 | -122.30626 | 421 ft | 24 kts | 0° |
| 2026-05-07 19:13 | 47.45456 | -122.30625 | 424 ft | 24 kts | 0° |
| 2026-05-07 19:13 | 47.45623 | -122.30623 | 432 ft | 24 kts | 0° |
| 2026-05-07 19:13 | 47.45794 | -122.30621 | 434 ft | 26 kts | 0° |
| 2026-05-07 19:14 | 47.45976 | -122.30619 | 434 ft | 27 kts | 0° |
| 2026-05-07 19:14 | 47.46170 | -122.30618 | 436 ft | 29 kts | 0° |
| 2026-05-07 19:14 | 47.46300 | -122.30616 | 438 ft | 16 kts | 0° |
| 2026-05-07 19:14 | 47.46332 | -122.30619 | 447 ft | 2 kts | 351° |
| 2026-05-07 19:15 | 47.46353 | -122.30633 | 447 ft | 5 kts | 326° |
| 2026-05-07 19:15 | 47.46373 | -122.30689 | 447 ft | 8 kts | 281° |
| 2026-05-07 19:15 | 47.46347 | -122.30763 | 445 ft | 10 kts | 207° |
| 2026-05-07 19:15 | 47.46262 | -122.30776 | 437 ft | 17 kts | 179° |
| 2026-05-07 19:16 | 47.45962 | -122.30781 | 432 ft | 81 kts | 180° |
| 2026-05-07 19:16 | 47.45147 | -122.30788 | 412 ft | 150 kts | 180° |
| 2026-05-07 19:16 | 47.43962 | -122.30809 | 676 ft | 176 kts | 184° |
| 2026-05-07 19:16 | 47.42812 | -122.30843 | 1588 ft | 165 kts | 182° |
| 2026-05-07 19:17 | 47.41642 | -122.30851 | 2318 ft | 170 kts | 183° |
| 2026-05-07 19:17 | 47.40384 | -122.30873 | 2716 ft | 194 kts | 182° |
| 2026-05-07 19:17 | 47.38938 | -122.30899 | 2992 ft | 223 kts | 182° |
| 2026-05-07 19:17 | 47.37328 | -122.30952 | 3527 ft | 238 kts | 182° |
| 2026-05-07 19:18 | 47.35637 | -122.31014 | 4286 ft | 247 kts | 183° |
| 2026-05-07 19:18 | 47.33908 | -122.31230 | 4991 ft | 253 kts | 199° |
| 2026-05-07 19:18 | 47.32410 | -122.32597 | 5680 ft | 259 kts | 231° |
| 2026-05-07 19:18 | 47.31605 | -122.34976 | 6412 ft | 263 kts | 259° |
| 2026-05-07 19:19 | 47.31307 | -122.37643 | 7161 ft | 266 kts | 262° |
| 2026-05-07 19:19 | 47.31019 | -122.40348 | 8044 ft | 267 kts | 262° |
| 2026-05-07 19:19 | 47.30729 | -122.43058 | 8967 ft | 268 kts | 263° |
| 2026-05-07 19:19 | 47.30608 | -122.45813 | 9789 ft | 271 kts | 272° |
| 2026-05-07 19:20 | 47.30692 | -122.48605 | 10561 ft | 276 kts | 274° |
| 2026-05-07 19:20 | 47.30814 | -122.51535 | 10905 ft | 299 kts | 274° |
| 2026-05-07 19:20 | 47.30926 | -122.54374 | 11095 ft | 324 kts | 274° |
| 2026-05-07 19:20 | 47.31061 | -122.58209 | 11406 ft | 350 kts | 273° |
| 2026-05-07 19:21 | 47.31175 | -122.61846 | 12165 ft | 360 kts | 273° |
| 2026-05-07 19:21 | 47.31281 | -122.65554 | 13136 ft | 364 kts | 273° |
| 2026-05-07 19:21 | 47.31382 | -122.69300 | 14163 ft | 367 kts | 272° |
| 2026-05-07 19:21 | 47.31482 | -122.73079 | 15086 ft | 370 kts | 273° |
| 2026-05-07 19:22 | 47.31467 | -122.76873 | 15848 ft | 374 kts | 264° |
| 2026-05-07 19:22 | 47.30752 | -122.80593 | 16543 ft | 381 kts | 250° |
| 2026-05-07 19:22 | 47.29738 | -122.84186 | 17193 ft | 388 kts | 250° |
| 2026-05-07 19:22 | 47.28707 | -122.87880 | 18074 ft | 391 kts | 250° |
| 2026-05-07 19:23 | 47.27686 | -122.91606 | 18896 ft | 394 kts | 250° |
| 2026-05-07 19:23 | 47.26669 | -122.95373 | 19574 ft | 399 kts | 251° |
| 2026-05-07 19:23 | 47.25644 | -122.99195 | 20246 ft | 403 kts | 251° |
| 2026-05-07 19:23 | 47.24627 | -123.02988 | 20912 ft | 408 kts | 251° |
| 2026-05-07 19:24 | 47.23584 | -123.06901 | 21588 ft | 412 kts | 251° |
| 2026-05-07 19:24 | 47.22544 | -123.10857 | 22229 ft | 417 kts | 252° |
| 2026-05-07 19:24 | 47.21498 | -123.14860 | 22871 ft | 421 kts | 252° |
| 2026-05-07 19:24 | 47.20441 | -123.18903 | 23501 ft | 426 kts | 252° |
| 2026-05-07 19:25 | 47.19369 | -123.22993 | 24083 ft | 430 kts | 252° |
| 2026-05-07 19:25 | 47.18287 | -123.27110 | 24636 ft | 433 kts | 252° |
| 2026-05-07 19:25 | 47.17196 | -123.31248 | 25207 ft | 436 kts | 252° |
| 2026-05-07 19:25 | 47.16095 | -123.35413 | 25775 ft | 439 kts | 252° |
| 2026-05-07 19:26 | 47.14997 | -123.39560 | 26334 ft | 442 kts | 252° |
| 2026-05-07 19:26 | 47.13860 | -123.43842 | 26879 ft | 445 kts | 252° |
| 2026-05-07 19:26 | 47.12731 | -123.48088 | 27418 ft | 449 kts | 252° |
| 2026-05-07 19:26 | 47.11590 | -123.52372 | 27941 ft | 452 kts | 252° |
| 2026-05-07 19:27 | 47.10453 | -123.56632 | 28419 ft | 456 kts | 252° |
| 2026-05-07 19:27 | 47.09292 | -123.60977 | 28880 ft | 459 kts | 252° |
| 2026-05-07 19:27 | 47.08119 | -123.65357 | 29349 ft | 463 kts | 252° |
| 2026-05-07 19:27 | 47.06936 | -123.69766 | 29809 ft | 465 kts | 252° |
| 2026-05-07 19:28 | 47.05745 | -123.74197 | 30239 ft | 468 kts | 252° |
| 2026-05-07 19:28 | 47.04547 | -123.78646 | 30640 ft | 469 kts | 252° |
| 2026-05-07 19:28 | 47.03348 | -123.83086 | 31140 ft | 467 kts | 252° |
| 2026-05-07 19:28 | 47.02152 | -123.87502 | 31721 ft | 464 kts | 252° |
| 2026-05-07 19:29 | 47.00963 | -123.91892 | 32232 ft | 462 kts | 252° |
| 2026-05-07 19:29 | 46.99777 | -123.96263 | 32673 ft | 462 kts | 252° |
| 2026-05-07 19:29 | 46.98617 | -124.00534 | 33109 ft | 461 kts | 252° |
| 2026-05-07 19:29 | 46.97430 | -124.04897 | 33595 ft | 460 kts | 252° |
| 2026-05-07 19:30 | 46.96248 | -124.09233 | 34145 ft | 456 kts | 251° |
| 2026-05-07 19:30 | 46.95066 | -124.13521 | 34630 ft | 454 kts | 250° |
| 2026-05-07 19:30 | 46.93515 | -124.17558 | 34964 ft | 457 kts | 237° |
| 2026-05-07 19:30 | 46.91536 | -124.21239 | 35103 ft | 463 kts | 236° |
| 2026-05-07 19:31 | 46.89502 | -124.24908 | 35312 ft | 465 kts | 235° |
| 2026-05-07 19:31 | 46.87463 | -124.28569 | 35729 ft | 462 kts | 236° |
| 2026-05-07 19:31 | 46.85449 | -124.32206 | 36183 ft | 459 kts | 236° |
| 2026-05-07 19:31 | 46.83452 | -124.35845 | 36573 ft | 457 kts | 236° |
| 2026-05-07 19:32 | 46.81478 | -124.39469 | 36908 ft | 456 kts | 236° |
| 2026-05-07 19:32 | 46.79512 | -124.43096 | 37252 ft | 455 kts | 236° |
| 2026-05-07 19:32 | 46.77575 | -124.46676 | 37569 ft | 454 kts | 237° |
| 2026-05-07 19:32 | 46.75625 | -124.50278 | 37899 ft | 452 kts | 237° |
| 2026-05-07 19:33 | 46.73675 | -124.53879 | 38127 ft | 453 kts | 236° |
| 2026-05-07 19:33 | 46.71712 | -124.57502 | 38155 ft | 456 kts | 236° |
| 2026-05-07 19:33 | 46.67773 | -124.64744 | 38201 ft | 454 kts | 236° |
| 2026-05-07 19:34 | 46.63866 | -124.71899 | 38200 ft | 449 kts | 236° |
| 2026-05-07 19:34 | 46.59984 | -124.78995 | 38212 ft | 447 kts | 236° |
| 2026-05-07 19:35 | 46.56113 | -124.86056 | 38209 ft | 446 kts | 236° |
| 2026-05-07 19:35 | 46.52236 | -124.93109 | 38218 ft | 446 kts | 236° |
| 2026-05-07 19:36 | 46.48373 | -125.00117 | 38225 ft | 447 kts | 236° |
| 2026-05-07 19:36 | 46.44501 | -125.07125 | 38218 ft | 448 kts | 235° |
| 2026-05-07 19:37 | 46.40597 | -125.14175 | 38222 ft | 449 kts | 235° |
| 2026-05-07 19:37 | 46.36703 | -125.21184 | 38222 ft | 450 kts | 235° |
| 2026-05-07 19:38 | 46.32751 | -125.28279 | 38222 ft | 450 kts | 235° |
| 2026-05-07 19:38 | 46.28840 | -125.35286 | 38223 ft | 450 kts | 235° |
| 2026-05-07 19:39 | 46.24901 | -125.42325 | 38206 ft | 450 kts | 234° |
| 2026-05-07 19:39 | 46.20956 | -125.49355 | 38223 ft | 450 kts | 234° |
| 2026-05-07 19:40 | 46.17008 | -125.56374 | 38223 ft | 451 kts | 234° |
| 2026-05-07 19:40 | 46.13048 | -125.63396 | 38211 ft | 451 kts | 234° |
| 2026-05-07 19:41 | 46.09082 | -125.70411 | 38223 ft | 451 kts | 234° |
| 2026-05-07 19:41 | 46.05119 | -125.77403 | 38225 ft | 451 kts | 234° |
| 2026-05-07 19:42 | 46.01152 | -125.84385 | 38226 ft | 451 kts | 234° |
| 2026-05-07 19:42 | 45.97187 | -125.91346 | 38222 ft | 450 kts | 233° |
| 2026-05-07 19:43 | 45.93241 | -125.98257 | 38225 ft | 450 kts | 233° |
| 2026-05-07 19:43 | 45.89329 | -126.05089 | 38226 ft | 450 kts | 233° |
| 2026-05-07 19:44 | 45.85357 | -126.12010 | 38229 ft | 449 kts | 233° |
| 2026-05-07 19:44 | 45.81383 | -126.18919 | 38228 ft | 449 kts | 233° |
| 2026-05-07 19:45 | 45.77409 | -126.25812 | 38232 ft | 448 kts | 233° |
| 2026-05-07 19:45 | 45.73435 | -126.32684 | 38231 ft | 448 kts | 233° |
| 2026-05-07 19:46 | 45.69460 | -126.39545 | 38231 ft | 448 kts | 233° |
| 2026-05-07 19:46 | 45.65479 | -126.46399 | 38224 ft | 447 kts | 233° |
| 2026-05-07 19:47 | 45.61498 | -126.53233 | 38233 ft | 447 kts | 233° |
| 2026-05-07 19:47 | 45.57516 | -126.60057 | 38225 ft | 447 kts | 233° |
| 2026-05-07 19:48 | 45.53536 | -126.66861 | 38237 ft | 448 kts | 232° |
| 2026-05-07 19:48 | 45.49421 | -126.73533 | 38236 ft | 450 kts | 226° |
| 2026-05-07 19:49 | 45.44862 | -126.79654 | 38238 ft | 450 kts | 226° |
| 2026-05-07 19:49 | 45.40278 | -126.85749 | 38234 ft | 451 kts | 226° |
| 2026-05-07 19:50 | 45.35727 | -126.91821 | 38238 ft | 451 kts | 226° |
| 2026-05-07 19:50 | 45.31152 | -126.97936 | 38236 ft | 451 kts | 226° |
| 2026-05-07 19:51 | 45.27405 | -127.02941 | 38235 ft | 451 kts | 226° |
| 2026-05-07 19:51 | 45.22829 | -127.09040 | 38233 ft | 451 kts | 226° |
| 2026-05-07 19:52 | 45.18249 | -127.15128 | 38234 ft | 451 kts | 225° |
| 2026-05-07 19:52 | 45.13676 | -127.21193 | 38234 ft | 450 kts | 225° |
| 2026-05-07 19:53 | 45.09110 | -127.27234 | 38235 ft | 449 kts | 225° |
| 2026-05-07 19:53 | 45.04547 | -127.33258 | 38233 ft | 448 kts | 225° |
| 2026-05-07 19:54 | 44.99996 | -127.39253 | 38237 ft | 447 kts | 225° |
| 2026-05-07 19:54 | 44.95454 | -127.45222 | 38240 ft | 446 kts | 225° |
| 2026-05-07 19:55 | 44.90901 | -127.51192 | 38239 ft | 446 kts | 225° |
| 2026-05-07 19:55 | 44.86342 | -127.57157 | 38239 ft | 446 kts | 225° |
| 2026-05-07 19:56 | 44.81786 | -127.63103 | 38234 ft | 447 kts | 225° |
| 2026-05-07 19:56 | 44.77224 | -127.69044 | 38240 ft | 447 kts | 225° |
| 2026-05-07 19:57 | 44.72655 | -127.74981 | 38243 ft | 447 kts | 225° |
| 2026-05-07 19:57 | 44.68083 | -127.80908 | 38242 ft | 448 kts | 224° |
| 2026-05-07 19:58 | 44.63505 | -127.86831 | 38243 ft | 448 kts | 224° |
| 2026-05-07 19:58 | 44.58919 | -127.92749 | 38233 ft | 448 kts | 224° |
| 2026-05-07 19:59 | 44.54338 | -127.98649 | 38237 ft | 448 kts | 224° |
| 2026-05-07 19:59 | 44.49842 | -128.04426 | 38239 ft | 449 kts | 224° |
| 2026-05-07 20:00 | 44.45235 | -128.10332 | 38242 ft | 449 kts | 224° |
| 2026-05-07 20:00 | 44.40624 | -128.16231 | 38241 ft | 449 kts | 224° |
| 2026-05-07 20:01 | 44.36006 | -128.22125 | 38239 ft | 449 kts | 224° |
| 2026-05-07 20:01 | 44.31390 | -128.28003 | 38243 ft | 449 kts | 224° |
| 2026-05-07 20:02 | 44.26767 | -128.33878 | 38239 ft | 449 kts | 224° |
| 2026-05-07 20:02 | 44.22173 | -128.39702 | 38240 ft | 448 kts | 224° |
| 2026-05-07 20:03 | 44.17557 | -128.45542 | 38235 ft | 448 kts | 225° |
| 2026-05-07 20:03 | 44.12943 | -128.51366 | 38236 ft | 447 kts | 225° |
| 2026-05-07 20:04 | 44.08336 | -128.57169 | 38238 ft | 446 kts | 224° |
| 2026-05-07 20:04 | 44.03725 | -128.62964 | 38237 ft | 446 kts | 224° |
| 2026-05-07 20:05 | 43.99130 | -128.68724 | 38243 ft | 445 kts | 225° |
| 2026-05-07 20:05 | 43.94530 | -128.74480 | 38238 ft | 444 kts | 225° |
| 2026-05-07 20:06 | 43.89943 | -128.80210 | 38236 ft | 443 kts | 225° |
| 2026-05-07 20:06 | 43.85387 | -128.85886 | 38236 ft | 443 kts | 225° |
| 2026-05-07 20:07 | 43.80805 | -128.91581 | 38250 ft | 442 kts | 225° |
| 2026-05-07 20:07 | 43.76222 | -128.97266 | 38238 ft | 442 kts | 225° |
| 2026-05-07 20:08 | 43.71714 | -129.02847 | 38237 ft | 442 kts | 225° |
| 2026-05-07 20:08 | 43.67127 | -129.08513 | 38236 ft | 442 kts | 224° |
| 2026-05-07 20:09 | 43.62534 | -129.14175 | 38239 ft | 443 kts | 225° |
| 2026-05-07 20:10 | 43.55627 | -129.22666 | 38247 ft | 444 kts | 225° |
| 2026-05-07 20:10 | 43.51006 | -129.28333 | 38245 ft | 445 kts | 224° |
| 2026-05-07 20:11 | 43.46370 | -129.34005 | 38236 ft | 446 kts | 224° |
| 2026-05-07 20:11 | 43.41759 | -129.39633 | 38244 ft | 446 kts | 224° |
| 2026-05-07 20:12 | 43.37113 | -129.45293 | 38234 ft | 446 kts | 224° |
| 2026-05-07 20:12 | 43.32451 | -129.50961 | 38252 ft | 446 kts | 224° |
| 2026-05-07 20:13 | 43.27793 | -129.56610 | 38240 ft | 446 kts | 224° |
| 2026-05-07 20:13 | 43.23140 | -129.62243 | 38239 ft | 446 kts | 224° |
| 2026-05-07 20:14 | 43.18487 | -129.67863 | 38231 ft | 445 kts | 224° |
| 2026-05-07 20:14 | 43.13871 | -129.73429 | 38240 ft | 445 kts | 224° |
| 2026-05-07 20:15 | 43.09218 | -129.79026 | 38248 ft | 445 kts | 224° |
| 2026-05-07 20:15 | 43.04557 | -129.84622 | 38244 ft | 445 kts | 224° |
| 2026-05-07 20:16 | 42.99901 | -129.90201 | 38246 ft | 445 kts | 224° |
| 2026-05-07 20:16 | 42.95238 | -129.95776 | 38243 ft | 445 kts | 224° |
| 2026-05-07 20:17 | 42.90752 | -130.01373 | 38241 ft | 442 kts | 230° |
| 2026-05-07 20:17 | 42.86689 | -130.07646 | 38249 ft | 441 kts | 231° |
| 2026-05-07 20:18 | 42.82671 | -130.13886 | 38244 ft | 440 kts | 231° |
| 2026-05-07 20:18 | 42.78620 | -130.20137 | 38241 ft | 440 kts | 231° |
| 2026-05-07 20:19 | 42.74567 | -130.26359 | 38242 ft | 439 kts | 231° |
| 2026-05-07 20:19 | 42.70514 | -130.32564 | 38246 ft | 438 kts | 231° |
| 2026-05-07 20:20 | 42.66466 | -130.38746 | 38248 ft | 437 kts | 231° |
| 2026-05-07 20:20 | 42.62424 | -130.44906 | 38232 ft | 436 kts | 231° |
| 2026-05-07 20:21 | 42.58381 | -130.51056 | 38241 ft | 436 kts | 231° |
| 2026-05-07 20:21 | 42.54359 | -130.57161 | 38237 ft | 436 kts | 231° |
| 2026-05-07 20:22 | 42.50313 | -130.63290 | 38239 ft | 436 kts | 231° |
| 2026-05-07 20:22 | 42.46263 | -130.69412 | 38237 ft | 436 kts | 231° |
| 2026-05-07 20:23 | 42.42215 | -130.75518 | 38238 ft | 435 kts | 230° |
| 2026-05-07 20:23 | 42.38170 | -130.81607 | 38242 ft | 435 kts | 230° |
| 2026-05-07 20:24 | 42.34149 | -130.87646 | 38231 ft | 434 kts | 230° |
| 2026-05-07 20:24 | 42.30109 | -130.93703 | 38236 ft | 434 kts | 230° |
| 2026-05-07 20:25 | 42.26067 | -130.99748 | 38234 ft | 433 kts | 230° |
| 2026-05-07 20:25 | 42.22094 | -131.05680 | 38239 ft | 433 kts | 230° |
| 2026-05-07 20:26 | 42.18057 | -131.11694 | 38235 ft | 432 kts | 230° |
| 2026-05-07 20:26 | 42.14017 | -131.17700 | 38230 ft | 432 kts | 230° |
| 2026-05-07 20:27 | 42.09978 | -131.23694 | 38237 ft | 432 kts | 230° |
| 2026-05-07 20:27 | 42.05960 | -131.29643 | 38236 ft | 432 kts | 230° |
| 2026-05-07 20:28 | 42.01918 | -131.35615 | 38245 ft | 432 kts | 230° |
| 2026-05-07 20:28 | 41.97872 | -131.41581 | 38224 ft | 432 kts | 230° |
| 2026-05-07 20:29 | 41.93816 | -131.47549 | 38228 ft | 432 kts | 230° |
| 2026-05-07 20:29 | 41.89767 | -131.53497 | 38224 ft | 432 kts | 230° |
| 2026-05-07 20:30 | 41.85712 | -131.59440 | 38228 ft | 432 kts | 230° |
| 2026-05-07 20:30 | 41.81650 | -131.65383 | 38223 ft | 432 kts | 230° |
| 2026-05-07 20:31 | 41.77591 | -131.71308 | 38224 ft | 431 kts | 230° |
| 2026-05-07 20:31 | 41.73530 | -131.77224 | 38227 ft | 431 kts | 229° |
| 2026-05-07 20:32 | 41.69467 | -131.83131 | 38221 ft | 431 kts | 229° |
| 2026-05-07 20:32 | 41.65401 | -131.89031 | 38220 ft | 430 kts | 229° |
| 2026-05-07 20:33 | 41.61342 | -131.94907 | 38220 ft | 430 kts | 229° |
| 2026-05-07 20:33 | 41.57371 | -132.00648 | 38220 ft | 430 kts | 229° |
| 2026-05-07 20:34 | 41.53312 | -132.06502 | 38216 ft | 429 kts | 229° |
| 2026-05-07 20:34 | 41.49256 | -132.12341 | 38213 ft | 429 kts | 229° |
| 2026-05-07 20:35 | 41.45197 | -132.18172 | 38218 ft | 429 kts | 229° |
| 2026-05-07 20:35 | 41.41138 | -132.23992 | 38210 ft | 428 kts | 229° |
| 2026-05-07 20:36 | 41.37080 | -132.29799 | 38210 ft | 428 kts | 229° |
| 2026-05-07 20:36 | 41.33016 | -132.35603 | 38204 ft | 428 kts | 229° |
| 2026-05-07 20:37 | 41.28980 | -132.41356 | 38211 ft | 428 kts | 229° |
| 2026-05-07 20:37 | 41.24910 | -132.47147 | 38213 ft | 429 kts | 229° |
| 2026-05-07 20:38 | 41.20832 | -132.52938 | 38206 ft | 429 kts | 228° |
| 2026-05-07 20:38 | 41.17436 | -132.57751 | 38209 ft | 429 kts | 228° |
| 2026-05-07 20:39 | 41.13343 | -132.63541 | 38208 ft | 430 kts | 228° |
| 2026-05-07 20:39 | 41.09249 | -132.69322 | 38203 ft | 430 kts | 228° |
| 2026-05-07 20:40 | 41.05148 | -132.75101 | 38197 ft | 430 kts | 228° |
| 2026-05-07 20:40 | 41.01079 | -132.80825 | 38199 ft | 429 kts | 228° |
| 2026-05-07 20:41 | 40.96983 | -132.86574 | 38202 ft | 429 kts | 228° |
| 2026-05-07 20:41 | 40.92885 | -132.92316 | 38195 ft | 429 kts | 228° |
| 2026-05-07 20:42 | 40.88786 | -132.98048 | 38195 ft | 429 kts | 227° |
| 2026-05-07 20:42 | 40.84752 | -133.03678 | 38197 ft | 429 kts | 227° |
| 2026-05-07 20:43 | 40.80648 | -133.09395 | 38195 ft | 429 kts | 227° |
| 2026-05-07 20:43 | 40.76537 | -133.15111 | 38191 ft | 429 kts | 227° |
| 2026-05-07 20:44 | 40.72432 | -133.20808 | 38180 ft | 429 kts | 227° |
| 2026-05-07 20:44 | 40.68320 | -133.26502 | 38184 ft | 429 kts | 227° |
| 2026-05-07 20:45 | 40.64200 | -133.32198 | 38204 ft | 430 kts | 227° |
| 2026-05-07 20:45 | 40.62128 | -133.35059 | 38365 ft | 432 kts | 227° |
| 2026-05-07 20:45 | 40.60082 | -133.37881 | 38693 ft | 431 kts | 227° |
| 2026-05-07 20:45 | 40.58018 | -133.40724 | 39010 ft | 429 kts | 227° |
| 2026-05-07 20:46 | 40.55960 | -133.43556 | 39222 ft | 429 kts | 228° |
| 2026-05-07 20:46 | 40.53894 | -133.46397 | 39383 ft | 430 kts | 228° |
| 2026-05-07 20:46 | 40.51824 | -133.49241 | 39563 ft | 430 kts | 228° |
| 2026-05-07 20:46 | 40.49753 | -133.52084 | 39749 ft | 430 kts | 228° |
| 2026-05-07 20:47 | 40.47684 | -133.54922 | 39934 ft | 431 kts | 228° |
| 2026-05-07 20:47 | 40.45608 | -133.57765 | 40065 ft | 431 kts | 228° |
| 2026-05-07 20:47 | 40.43530 | -133.60610 | 40114 ft | 433 kts | 228° |
| 2026-05-07 20:48 | 40.39350 | -133.66322 | 40173 ft | 433 kts | 228° |
| 2026-05-07 20:48 | 40.35180 | -133.72010 | 40177 ft | 432 kts | 228° |
| 2026-05-07 20:49 | 40.31017 | -133.77677 | 40182 ft | 431 kts | 228° |
| 2026-05-07 20:49 | 40.26858 | -133.83328 | 40180 ft | 430 kts | 228° |
| 2026-05-07 20:50 | 40.22725 | -133.88935 | 40182 ft | 430 kts | 228° |
| 2026-05-07 20:50 | 40.18569 | -133.94561 | 40175 ft | 430 kts | 228° |
| 2026-05-07 20:51 | 40.14451 | -134.00126 | 40171 ft | 430 kts | 228° |
| 2026-05-07 20:51 | 40.10292 | -134.05735 | 40168 ft | 430 kts | 228° |
| 2026-05-07 20:52 | 40.06124 | -134.11346 | 40172 ft | 430 kts | 228° |
| 2026-05-07 20:52 | 40.01949 | -134.16956 | 40171 ft | 431 kts | 228° |
| 2026-05-07 20:53 | 39.97802 | -134.22518 | 40174 ft | 431 kts | 228° |
| 2026-05-07 20:53 | 39.93611 | -134.28129 | 40166 ft | 432 kts | 228° |
| 2026-05-07 20:54 | 39.89413 | -134.33738 | 40161 ft | 432 kts | 228° |
| 2026-05-07 20:54 | 39.85210 | -134.39344 | 40165 ft | 432 kts | 228° |
| 2026-05-07 20:55 | 39.80996 | -134.44953 | 40162 ft | 433 kts | 228° |
| 2026-05-07 20:55 | 39.76789 | -134.50544 | 40160 ft | 433 kts | 228° |
| 2026-05-07 20:56 | 39.72579 | -134.56127 | 40155 ft | 432 kts | 228° |
| 2026-05-07 20:56 | 39.68372 | -134.61697 | 40156 ft | 432 kts | 228° |
| 2026-05-07 20:57 | 39.64168 | -134.67253 | 40154 ft | 431 kts | 228° |
| 2026-05-07 20:57 | 39.59967 | -134.72793 | 40154 ft | 430 kts | 228° |
| 2026-05-07 20:58 | 39.55769 | -134.78321 | 40156 ft | 430 kts | 228° |
| 2026-05-07 20:58 | 39.51580 | -134.83826 | 40158 ft | 429 kts | 228° |
| 2026-05-07 20:59 | 39.47424 | -134.89282 | 40129 ft | 428 kts | 228° |
| 2026-05-07 20:59 | 39.43242 | -134.94759 | 40138 ft | 428 kts | 228° |
| 2026-05-07 21:00 | 39.39477 | -135.00583 | 40138 ft | 425 kts | 237° |
| 2026-05-07 21:00 | 39.36123 | -135.06902 | 40137 ft | 426 kts | 237° |
| 2026-05-07 21:01 | 39.32760 | -135.13211 | 40145 ft | 427 kts | 237° |
| 2026-05-07 21:01 | 39.29377 | -135.19519 | 40150 ft | 428 kts | 237° |
| 2026-05-07 21:02 | 39.25978 | -135.25836 | 40137 ft | 428 kts | 237° |
| 2026-05-07 21:02 | 39.22573 | -135.32144 | 40133 ft | 428 kts | 237° |
| 2026-05-07 21:03 | 39.19167 | -135.38445 | 40137 ft | 428 kts | 237° |
| 2026-05-07 21:03 | 39.15785 | -135.44688 | 40146 ft | 427 kts | 237° |
| 2026-05-07 21:04 | 39.12379 | -135.50963 | 40146 ft | 427 kts | 237° |
| 2026-05-07 21:04 | 39.08977 | -135.57218 | 40125 ft | 426 kts | 237° |
| 2026-05-07 21:05 | 39.05583 | -135.63447 | 40122 ft | 425 kts | 237° |
| 2026-05-07 21:05 | 39.02191 | -135.69661 | 40126 ft | 424 kts | 237° |
| 2026-05-07 21:06 | 38.98811 | -135.75841 | 40119 ft | 423 kts | 237° |
| 2026-05-07 21:06 | 38.95424 | -135.82021 | 40128 ft | 422 kts | 237° |
| 2026-05-07 21:07 | 38.92064 | -135.88141 | 40111 ft | 421 kts | 237° |
| 2026-05-07 21:07 | 38.88681 | -135.94290 | 40110 ft | 421 kts | 237° |
| 2026-05-07 21:08 | 38.85352 | -136.00331 | 40123 ft | 420 kts | 237° |
| 2026-05-07 21:08 | 38.81974 | -136.06448 | 40107 ft | 420 kts | 237° |
| 2026-05-07 21:09 | 38.78600 | -136.12548 | 40114 ft | 419 kts | 237° |
| 2026-05-07 21:09 | 38.75224 | -136.18638 | 40102 ft | 419 kts | 237° |
| 2026-05-07 21:10 | 38.71845 | -136.24724 | 40107 ft | 419 kts | 237° |
| 2026-05-07 21:10 | 38.68464 | -136.30800 | 40097 ft | 419 kts | 237° |
| 2026-05-07 21:11 | 38.65084 | -136.36863 | 40098 ft | 419 kts | 237° |
| 2026-05-07 21:11 | 38.60025 | -136.45918 | 40090 ft | 419 kts | 237° |
| 2026-05-07 21:12 | 38.56636 | -136.51971 | 40103 ft | 419 kts | 237° |
| 2026-05-07 21:12 | 38.53240 | -136.58023 | 40086 ft | 419 kts | 237° |
| 2026-05-07 21:13 | 38.49838 | -136.64076 | 40084 ft | 419 kts | 237° |
| 2026-05-07 21:13 | 38.46436 | -136.70118 | 40079 ft | 419 kts | 237° |
| 2026-05-07 21:14 | 38.43031 | -136.76151 | 40094 ft | 419 kts | 237° |
| 2026-05-07 21:14 | 38.39627 | -136.82174 | 40087 ft | 419 kts | 237° |
| 2026-05-07 21:15 | 38.36220 | -136.88191 | 40091 ft | 419 kts | 237° |
| 2026-05-07 21:15 | 38.32803 | -136.94214 | 40077 ft | 419 kts | 237° |
| 2026-05-07 21:16 | 38.29425 | -137.00157 | 40081 ft | 419 kts | 237° |
| 2026-05-07 21:16 | 38.26012 | -137.06152 | 40089 ft | 419 kts | 237° |
| 2026-05-07 21:17 | 38.22589 | -137.12152 | 40093 ft | 419 kts | 237° |
| 2026-05-07 21:17 | 38.19184 | -137.18111 | 40079 ft | 419 kts | 237° |
| 2026-05-07 21:18 | 38.15754 | -137.24101 | 40094 ft | 419 kts | 237° |
| 2026-05-07 21:18 | 38.12319 | -137.30090 | 40089 ft | 419 kts | 237° |
| 2026-05-07 21:19 | 38.08878 | -137.36079 | 40092 ft | 420 kts | 236° |
| 2026-05-07 21:19 | 38.05435 | -137.42059 | 40086 ft | 420 kts | 236° |
| 2026-05-07 21:20 | 38.01987 | -137.48037 | 40076 ft | 420 kts | 236° |
| 2026-05-07 21:20 | 37.98542 | -137.54001 | 40089 ft | 420 kts | 236° |
| 2026-05-07 21:21 | 37.95081 | -137.59980 | 40097 ft | 421 kts | 236° |
| 2026-05-07 21:21 | 37.91613 | -137.65960 | 40084 ft | 421 kts | 236° |
| 2026-05-07 21:22 | 37.88144 | -137.71932 | 40098 ft | 421 kts | 236° |
| 2026-05-07 21:22 | 37.84699 | -137.77851 | 40085 ft | 420 kts | 236° |
| 2026-05-07 21:23 | 37.81231 | -137.83798 | 40088 ft | 420 kts | 236° |
| 2026-05-07 21:23 | 37.77761 | -137.89741 | 40084 ft | 419 kts | 236° |
| 2026-05-07 21:24 | 37.74294 | -137.95666 | 40092 ft | 419 kts | 236° |
| 2026-05-07 21:24 | 37.70875 | -138.01499 | 40091 ft | 419 kts | 236° |
| 2026-05-07 21:25 | 37.67984 | -138.06423 | 40101 ft | 419 kts | 236° |
| 2026-05-07 21:25 | 37.64507 | -138.12335 | 40091 ft | 419 kts | 236° |
| 2026-05-07 21:26 | 37.61030 | -138.18238 | 40094 ft | 419 kts | 236° |
| 2026-05-07 21:26 | 37.57549 | -138.24135 | 40098 ft | 419 kts | 236° |
| 2026-05-07 21:27 | 37.54068 | -138.30024 | 40094 ft | 419 kts | 236° |
| 2026-05-07 21:27 | 37.50581 | -138.35911 | 40094 ft | 419 kts | 236° |
| 2026-05-07 21:28 | 37.47116 | -138.41751 | 40099 ft | 419 kts | 236° |
| 2026-05-07 21:28 | 37.43623 | -138.47627 | 40098 ft | 419 kts | 236° |
| 2026-05-07 21:29 | 37.40132 | -138.53490 | 40092 ft | 419 kts | 236° |
| 2026-05-07 21:29 | 37.36637 | -138.59350 | 40090 ft | 418 kts | 236° |
| 2026-05-07 21:30 | 37.33143 | -138.65196 | 40101 ft | 418 kts | 236° |
| 2026-05-07 21:30 | 37.29646 | -138.71039 | 40091 ft | 418 kts | 236° |
| 2026-05-07 21:31 | 37.26147 | -138.76874 | 40103 ft | 418 kts | 236° |
| 2026-05-07 21:31 | 37.22667 | -138.82669 | 40105 ft | 418 kts | 236° |
| 2026-05-07 21:32 | 37.19163 | -138.88493 | 40099 ft | 418 kts | 236° |
| 2026-05-07 21:32 | 37.15653 | -138.94315 | 40107 ft | 418 kts | 236° |
| 2026-05-07 21:33 | 37.12166 | -139.00090 | 40103 ft | 418 kts | 236° |
| 2026-05-07 21:33 | 37.08681 | -139.05851 | 40102 ft | 418 kts | 236° |
| 2026-05-07 21:34 | 37.05168 | -139.11650 | 40108 ft | 418 kts | 235° |
| 2026-05-07 21:34 | 37.01649 | -139.17449 | 40107 ft | 418 kts | 235° |
| 2026-05-07 21:35 | 36.98135 | -139.23229 | 40103 ft | 418 kts | 235° |
| 2026-05-07 21:35 | 36.94609 | -139.29018 | 40092 ft | 418 kts | 235° |
| 2026-05-07 21:36 | 36.91106 | -139.34759 | 40109 ft | 418 kts | 235° |
| 2026-05-07 21:36 | 36.87576 | -139.40535 | 40102 ft | 418 kts | 235° |
| 2026-05-07 21:37 | 36.84043 | -139.46308 | 40091 ft | 418 kts | 235° |
| 2026-05-07 21:37 | 36.80509 | -139.52070 | 40100 ft | 418 kts | 235° |
| 2026-05-07 21:38 | 36.76971 | -139.57830 | 40113 ft | 418 kts | 235° |
| 2026-05-07 21:38 | 36.73425 | -139.63593 | 40086 ft | 418 kts | 235° |
| 2026-05-07 21:39 | 36.69884 | -139.69336 | 40104 ft | 418 kts | 235° |
| 2026-05-07 21:39 | 36.66338 | -139.75080 | 40136 ft | 418 kts | 235° |
| 2026-05-07 21:40 | 36.62786 | -139.80824 | 40101 ft | 418 kts | 235° |
| 2026-05-07 21:40 | 36.59256 | -139.86521 | 40109 ft | 418 kts | 235° |
| 2026-05-07 21:41 | 36.55703 | -139.92247 | 40112 ft | 418 kts | 235° |
| 2026-05-07 21:41 | 36.52144 | -139.97972 | 40124 ft | 418 kts | 235° |
| 2026-05-07 21:42 | 36.48634 | -140.03611 | 40111 ft | 418 kts | 235° |
| 2026-05-07 21:42 | 36.45069 | -140.09326 | 40116 ft | 418 kts | 235° |
| 2026-05-07 21:43 | 36.41505 | -140.15030 | 40113 ft | 418 kts | 234° |
| 2026-05-07 21:43 | 36.37940 | -140.20726 | 40130 ft | 418 kts | 234° |
| 2026-05-07 21:44 | 36.34371 | -140.26421 | 40119 ft | 418 kts | 234° |
| 2026-05-07 21:44 | 36.30817 | -140.32081 | 40117 ft | 418 kts | 234° |
| 2026-05-07 21:45 | 36.27239 | -140.37769 | 40093 ft | 418 kts | 234° |
| 2026-05-07 21:45 | 36.23655 | -140.43459 | 40135 ft | 419 kts | 234° |
| 2026-05-07 21:46 | 36.20069 | -140.49142 | 40125 ft | 419 kts | 234° |
| 2026-05-07 21:46 | 36.16476 | -140.54827 | 40105 ft | 419 kts | 234° |
| 2026-05-07 21:47 | 36.12880 | -140.60505 | 40114 ft | 419 kts | 234° |
| 2026-05-07 21:47 | 36.09280 | -140.66182 | 40134 ft | 419 kts | 234° |
| 2026-05-07 21:48 | 36.05681 | -140.71848 | 40123 ft | 419 kts | 234° |
| 2026-05-07 21:48 | 36.02079 | -140.77508 | 40127 ft | 419 kts | 234° |
| 2026-05-07 21:49 | 35.98478 | -140.83158 | 40126 ft | 419 kts | 234° |
| 2026-05-07 21:49 | 35.94894 | -140.88771 | 40148 ft | 418 kts | 234° |
| 2026-05-07 21:50 | 35.91290 | -140.94408 | 40112 ft | 418 kts | 234° |
| 2026-05-07 21:50 | 35.87695 | -141.00020 | 40119 ft | 417 kts | 234° |
| 2026-05-07 21:51 | 35.84138 | -141.05566 | 40129 ft | 417 kts | 234° |
| 2026-05-07 21:51 | 35.80536 | -141.11172 | 40130 ft | 417 kts | 234° |
| 2026-05-07 21:52 | 35.76926 | -141.16780 | 40120 ft | 417 kts | 234° |
| 2026-05-07 21:52 | 35.73313 | -141.22384 | 40122 ft | 418 kts | 234° |
| 2026-05-07 21:53 | 35.69695 | -141.27987 | 40136 ft | 418 kts | 234° |
| 2026-05-07 21:53 | 35.66091 | -141.33559 | 40135 ft | 419 kts | 234° |
| 2026-05-07 21:54 | 35.62454 | -141.39175 | 40134 ft | 420 kts | 234° |
| 2026-05-07 21:54 | 35.58812 | -141.44788 | 40126 ft | 420 kts | 234° |
| 2026-05-07 21:55 | 35.55160 | -141.50406 | 40114 ft | 420 kts | 234° |
| 2026-05-07 21:55 | 35.51507 | -141.56018 | 40125 ft | 420 kts | 234° |
| 2026-05-07 21:56 | 35.47872 | -141.61592 | 40141 ft | 421 kts | 234° |
| 2026-05-07 21:56 | 35.44212 | -141.67196 | 40134 ft | 421 kts | 234° |
| 2026-05-07 21:57 | 35.40553 | -141.72789 | 40125 ft | 420 kts | 234° |
| 2026-05-07 21:57 | 35.36894 | -141.78374 | 40135 ft | 420 kts | 234° |
| 2026-05-07 21:58 | 35.33234 | -141.83951 | 40149 ft | 420 kts | 234° |
| 2026-05-07 21:58 | 35.29568 | -141.89529 | 40114 ft | 420 kts | 234° |
| 2026-05-07 21:59 | 35.25930 | -141.95056 | 40132 ft | 420 kts | 234° |
| 2026-05-07 21:59 | 35.22312 | -142.00543 | 40138 ft | 419 kts | 234° |
| 2026-05-07 22:00 | 35.18644 | -142.06096 | 40161 ft | 420 kts | 234° |
| 2026-05-07 22:00 | 35.14973 | -142.11646 | 40130 ft | 420 kts | 234° |
| 2026-05-07 22:01 | 35.11301 | -142.17189 | 40142 ft | 420 kts | 234° |
| 2026-05-07 22:01 | 35.07626 | -142.22730 | 40139 ft | 420 kts | 234° |
| 2026-05-07 22:02 | 35.03946 | -142.28268 | 40124 ft | 420 kts | 234° |
| 2026-05-07 22:02 | 35.00256 | -142.33812 | 40146 ft | 420 kts | 234° |
| 2026-05-07 22:03 | 34.96573 | -142.39329 | 40140 ft | 421 kts | 233° |
| 2026-05-07 22:03 | 34.92895 | -142.44824 | 40141 ft | 420 kts | 233° |
| 2026-05-07 22:04 | 34.89197 | -142.50344 | 40136 ft | 420 kts | 233° |
| 2026-05-07 22:04 | 34.85497 | -142.55861 | 40148 ft | 421 kts | 233° |
| 2026-05-07 22:05 | 34.81792 | -142.61377 | 40146 ft | 421 kts | 233° |
| 2026-05-07 22:05 | 34.78083 | -142.66890 | 40143 ft | 421 kts | 233° |
| 2026-05-07 22:06 | 34.74368 | -142.72403 | 40143 ft | 421 kts | 233° |
| 2026-05-07 22:06 | 34.70659 | -142.77899 | 40165 ft | 420 kts | 233° |
| 2026-05-07 22:07 | 34.66945 | -142.83394 | 40149 ft | 420 kts | 233° |
| 2026-05-07 22:07 | 34.63234 | -142.88876 | 40125 ft | 420 kts | 233° |
| 2026-05-07 22:08 | 34.59553 | -142.94304 | 40138 ft | 419 kts | 233° |
| 2026-05-07 22:08 | 34.55846 | -142.99763 | 40147 ft | 419 kts | 233° |
| 2026-05-07 22:09 | 34.52193 | -143.05135 | 40155 ft | 419 kts | 233° |
| 2026-05-07 22:09 | 34.48484 | -143.10580 | 40141 ft | 419 kts | 233° |
| 2026-05-07 22:10 | 34.44773 | -143.16020 | 40149 ft | 419 kts | 233° |
| 2026-05-07 22:10 | 34.41057 | -143.21459 | 40153 ft | 419 kts | 233° |
| 2026-05-07 22:11 | 34.37338 | -143.26894 | 40169 ft | 420 kts | 233° |
| 2026-05-07 22:11 | 34.33611 | -143.32332 | 40151 ft | 420 kts | 233° |
| 2026-05-07 22:12 | 34.29882 | -143.37765 | 40151 ft | 420 kts | 233° |
| 2026-05-07 22:12 | 34.26144 | -143.43203 | 40150 ft | 420 kts | 233° |
| 2026-05-07 22:13 | 34.23031 | -143.47723 | 40133 ft | 421 kts | 233° |
| 2026-05-07 22:13 | 34.19285 | -143.53158 | 40148 ft | 421 kts | 233° |
| 2026-05-07 22:14 | 34.14919 | -143.59481 | 40153 ft | 421 kts | 233° |
| 2026-05-07 22:14 | 34.11791 | -143.64003 | 40153 ft | 422 kts | 233° |
| 2026-05-07 22:15 | 34.08028 | -143.69436 | 40130 ft | 422 kts | 233° |
| 2026-05-07 22:15 | 34.04254 | -143.74878 | 40174 ft | 423 kts | 233° |
| 2026-05-07 22:16 | 34.00468 | -143.80329 | 40166 ft | 424 kts | 233° |
| 2026-05-07 22:16 | 33.96687 | -143.85763 | 40157 ft | 424 kts | 233° |
| 2026-05-07 22:17 | 33.92893 | -143.91208 | 40147 ft | 424 kts | 233° |
| 2026-05-07 22:17 | 33.89099 | -143.96644 | 40156 ft | 424 kts | 233° |
| 2026-05-07 22:18 | 33.83459 | -144.04711 | 40160 ft | 424 kts | 233° |
| 2026-05-07 22:19 | 33.79657 | -144.10138 | 40137 ft | 424 kts | 233° |
| 2026-05-07 22:19 | 33.75856 | -144.15557 | 40152 ft | 424 kts | 233° |
| 2026-05-07 22:20 | 33.72073 | -144.20941 | 40161 ft | 424 kts | 233° |
| 2026-05-07 22:20 | 33.68264 | -144.26354 | 40180 ft | 424 kts | 233° |
| 2026-05-07 22:21 | 33.64457 | -144.31757 | 40144 ft | 424 kts | 233° |
| 2026-05-07 22:21 | 33.60644 | -144.37159 | 40159 ft | 424 kts | 233° |
| 2026-05-07 22:22 | 33.56830 | -144.42554 | 40164 ft | 424 kts | 232° |
| 2026-05-07 22:22 | 33.53012 | -144.47948 | 40165 ft | 424 kts | 232° |
| 2026-05-07 22:23 | 33.49186 | -144.53345 | 40154 ft | 425 kts | 232° |
| 2026-05-07 22:23 | 33.45381 | -144.58705 | 40161 ft | 425 kts | 232° |
| 2026-05-07 22:24 | 33.41547 | -144.64097 | 40161 ft | 425 kts | 232° |
| 2026-05-07 22:24 | 33.37710 | -144.69485 | 40163 ft | 425 kts | 232° |
| 2026-05-07 22:25 | 33.33866 | -144.74875 | 40167 ft | 426 kts | 232° |
| 2026-05-07 22:25 | 33.30022 | -144.80256 | 40171 ft | 426 kts | 232° |
| 2026-05-07 22:26 | 33.26177 | -144.85631 | 40165 ft | 425 kts | 232° |
| 2026-05-07 22:26 | 33.22334 | -144.90995 | 40166 ft | 425 kts | 232° |
| 2026-05-07 22:27 | 33.18491 | -144.96351 | 40161 ft | 424 kts | 232° |
| 2026-05-07 22:27 | 33.14712 | -145.01611 | 40183 ft | 424 kts | 232° |
| 2026-05-07 22:28 | 33.10872 | -145.06948 | 40166 ft | 424 kts | 232° |
| 2026-05-07 22:28 | 33.07034 | -145.12275 | 40171 ft | 423 kts | 232° |
| 2026-05-07 22:29 | 33.03196 | -145.17594 | 40158 ft | 423 kts | 232° |
| 2026-05-07 22:29 | 32.99388 | -145.22863 | 40168 ft | 423 kts | 232° |
| 2026-05-07 22:30 | 32.95542 | -145.28177 | 40186 ft | 424 kts | 232° |
| 2026-05-07 22:30 | 32.91687 | -145.33496 | 40174 ft | 424 kts | 232° |
| 2026-05-07 22:31 | 32.87834 | -145.38804 | 40170 ft | 424 kts | 232° |
| 2026-05-07 22:31 | 32.83969 | -145.44122 | 40176 ft | 425 kts | 232° |
| 2026-05-07 22:32 | 32.80101 | -145.49435 | 40173 ft | 425 kts | 232° |
| 2026-05-07 22:32 | 32.76218 | -145.54762 | 40177 ft | 426 kts | 232° |
| 2026-05-07 22:33 | 32.72335 | -145.60080 | 40173 ft | 426 kts | 232° |
| 2026-05-07 22:33 | 32.68473 | -145.65362 | 40172 ft | 426 kts | 232° |
| 2026-05-07 22:34 | 32.64582 | -145.70676 | 40174 ft | 426 kts | 232° |
| 2026-05-07 22:34 | 32.60689 | -145.75986 | 40176 ft | 426 kts | 232° |
| 2026-05-07 22:35 | 32.56792 | -145.81293 | 40171 ft | 426 kts | 232° |
| 2026-05-07 22:35 | 32.52898 | -145.86588 | 40173 ft | 426 kts | 232° |
| 2026-05-07 22:36 | 32.48999 | -145.91882 | 40171 ft | 426 kts | 232° |
| 2026-05-07 22:36 | 32.45092 | -145.97181 | 40174 ft | 426 kts | 232° |
| 2026-05-07 22:37 | 32.41249 | -146.02384 | 40163 ft | 427 kts | 232° |
| 2026-05-07 22:37 | 32.37364 | -146.07637 | 40172 ft | 427 kts | 232° |
| 2026-05-07 22:38 | 32.33447 | -146.12926 | 40175 ft | 427 kts | 232° |
| 2026-05-07 22:38 | 32.29526 | -146.18212 | 40174 ft | 428 kts | 232° |
| 2026-05-07 22:39 | 32.25590 | -146.23512 | 40168 ft | 428 kts | 232° |
| 2026-05-07 22:39 | 32.21653 | -146.28806 | 40177 ft | 428 kts | 232° |
| 2026-05-07 22:40 | 32.17714 | -146.34093 | 40180 ft | 429 kts | 231° |
| 2026-05-07 22:40 | 32.13797 | -146.39345 | 40175 ft | 429 kts | 231° |
| 2026-05-07 22:41 | 32.09851 | -146.44627 | 40163 ft | 428 kts | 231° |
| 2026-05-07 22:41 | 32.05900 | -146.49908 | 40178 ft | 428 kts | 231° |
| 2026-05-07 22:42 | 32.01958 | -146.55171 | 40179 ft | 428 kts | 231° |
| 2026-05-07 22:42 | 31.98023 | -146.60417 | 40183 ft | 428 kts | 231° |
| 2026-05-07 22:43 | 31.94083 | -146.65662 | 40166 ft | 428 kts | 231° |
| 2026-05-07 22:43 | 31.90141 | -146.70901 | 40179 ft | 427 kts | 231° |
| 2026-05-07 22:44 | 31.86220 | -146.76106 | 40179 ft | 428 kts | 231° |
| 2026-05-07 22:44 | 31.82272 | -146.81340 | 40181 ft | 428 kts | 231° |
| 2026-05-07 22:45 | 31.78317 | -146.86576 | 40192 ft | 428 kts | 231° |
| 2026-05-07 22:45 | 31.74359 | -146.91808 | 40182 ft | 428 kts | 231° |
| 2026-05-07 22:46 | 31.70400 | -146.97034 | 40180 ft | 428 kts | 231° |
| 2026-05-07 22:46 | 31.66501 | -147.02173 | 40180 ft | 427 kts | 231° |
| 2026-05-07 22:47 | 31.62542 | -147.07385 | 40179 ft | 427 kts | 231° |
| 2026-05-07 22:47 | 31.58579 | -147.12594 | 40190 ft | 427 kts | 231° |
| 2026-05-07 22:48 | 31.54620 | -147.17793 | 40179 ft | 427 kts | 231° |
| 2026-05-07 22:48 | 31.50680 | -147.22957 | 40183 ft | 428 kts | 231° |
| 2026-05-07 22:49 | 31.46713 | -147.28152 | 40188 ft | 428 kts | 231° |
| 2026-05-07 22:49 | 31.42742 | -147.33343 | 40173 ft | 428 kts | 231° |
| 2026-05-07 22:50 | 31.38770 | -147.38529 | 40194 ft | 428 kts | 230° |
| 2026-05-07 22:50 | 31.34782 | -147.43729 | 40188 ft | 429 kts | 230° |
| 2026-05-07 22:51 | 31.30794 | -147.48920 | 40184 ft | 429 kts | 230° |
| 2026-05-07 22:51 | 31.26799 | -147.54116 | 40167 ft | 429 kts | 230° |
| 2026-05-07 22:52 | 31.22804 | -147.59302 | 40183 ft | 429 kts | 230° |
| 2026-05-07 22:52 | 31.18831 | -147.64454 | 40186 ft | 430 kts | 230° |
| 2026-05-07 22:53 | 31.14822 | -147.69645 | 40190 ft | 430 kts | 230° |
| 2026-05-07 22:53 | 31.10814 | -147.74829 | 40187 ft | 430 kts | 230° |
| 2026-05-07 22:54 | 31.06798 | -147.80014 | 40179 ft | 430 kts | 230° |
| 2026-05-07 22:54 | 31.02784 | -147.85191 | 40193 ft | 430 kts | 230° |
| 2026-05-07 22:55 | 30.98788 | -147.90337 | 40175 ft | 431 kts | 230° |
| 2026-05-07 22:55 | 30.94759 | -147.95519 | 40185 ft | 431 kts | 230° |
| 2026-05-07 22:56 | 30.90798 | -148.00608 | 40175 ft | 431 kts | 230° |
| 2026-05-07 22:56 | 30.86767 | -148.05777 | 40189 ft | 431 kts | 230° |
| 2026-05-07 22:57 | 30.82732 | -148.10946 | 40189 ft | 431 kts | 230° |
| 2026-05-07 22:57 | 30.78696 | -148.16110 | 40198 ft | 431 kts | 230° |
| 2026-05-07 22:58 | 30.74653 | -148.21274 | 40176 ft | 431 kts | 230° |
| 2026-05-07 22:58 | 30.70636 | -148.26399 | 40188 ft | 431 kts | 230° |
| 2026-05-07 22:59 | 30.66588 | -148.31557 | 40191 ft | 432 kts | 230° |
| 2026-05-07 22:59 | 30.62538 | -148.36711 | 40188 ft | 432 kts | 230° |
| 2026-05-07 23:00 | 30.58477 | -148.41871 | 40190 ft | 433 kts | 230° |
| 2026-05-07 23:00 | 30.54412 | -148.47029 | 40181 ft | 433 kts | 229° |
| 2026-05-07 23:01 | 30.51031 | -148.51315 | 40192 ft | 433 kts | 229° |
| 2026-05-07 23:01 | 30.46957 | -148.56472 | 40185 ft | 434 kts | 229° |
| 2026-05-07 23:02 | 30.42881 | -148.61626 | 40180 ft | 434 kts | 229° |
| 2026-05-07 23:02 | 30.38795 | -148.66784 | 40164 ft | 434 kts | 229° |
| 2026-05-07 23:03 | 30.34739 | -148.71898 | 40178 ft | 434 kts | 229° |
| 2026-05-07 23:03 | 30.30653 | -148.77044 | 40187 ft | 434 kts | 229° |
| 2026-05-07 23:04 | 30.26560 | -148.82191 | 40185 ft | 435 kts | 229° |
| 2026-05-07 23:04 | 30.22459 | -148.87341 | 40184 ft | 435 kts | 229° |
| 2026-05-07 23:05 | 30.18350 | -148.92496 | 40175 ft | 436 kts | 229° |
| 2026-05-07 23:05 | 30.14233 | -148.97653 | 40186 ft | 436 kts | 229° |
| 2026-05-07 23:06 | 30.10178 | -149.02728 | 40191 ft | 437 kts | 229° |
| 2026-05-07 23:06 | 30.06050 | -149.07886 | 40188 ft | 437 kts | 229° |
| 2026-05-07 23:07 | 30.01919 | -149.13042 | 40187 ft | 437 kts | 229° |
| 2026-05-07 23:07 | 29.97793 | -149.18187 | 40187 ft | 437 kts | 229° |
| 2026-05-07 23:08 | 29.93662 | -149.23335 | 40185 ft | 437 kts | 229° |
| 2026-05-07 23:08 | 29.89532 | -149.28476 | 40184 ft | 437 kts | 229° |
| 2026-05-07 23:09 | 29.85428 | -149.33578 | 40196 ft | 436 kts | 229° |
| 2026-05-07 23:09 | 29.81305 | -149.38697 | 40176 ft | 436 kts | 229° |
| 2026-05-07 23:10 | 29.77181 | -149.43811 | 40182 ft | 436 kts | 229° |
| 2026-05-07 23:10 | 29.73055 | -149.48920 | 40187 ft | 436 kts | 229° |
| 2026-05-07 23:11 | 29.68924 | -149.54029 | 40186 ft | 436 kts | 229° |
| 2026-05-07 23:11 | 29.64784 | -149.59142 | 40179 ft | 436 kts | 229° |
| 2026-05-07 23:12 | 29.60657 | -149.64233 | 40190 ft | 439 kts | 229° |
| 2026-05-07 23:12 | 29.56486 | -149.69372 | 40169 ft | 440 kts | 229° |
| 2026-05-07 23:13 | 29.52315 | -149.74502 | 40181 ft | 439 kts | 229° |
| 2026-05-07 23:13 | 29.48152 | -149.79617 | 40185 ft | 438 kts | 228° |
| 2026-05-07 23:14 | 29.43992 | -149.84722 | 40169 ft | 438 kts | 228° |
| 2026-05-07 23:14 | 29.39834 | -149.89818 | 40189 ft | 437 kts | 228° |
| 2026-05-07 23:15 | 29.35672 | -149.94912 | 40184 ft | 437 kts | 228° |
| 2026-05-07 23:15 | 29.32394 | -149.98920 | 40186 ft | 438 kts | 228° |
| 2026-05-07 23:16 | 29.28268 | -150.03959 | 40188 ft | 438 kts | 228° |
| 2026-05-07 23:16 | 29.26179 | -150.06508 | 40777 ft | 443 kts | 227° |
| 2026-05-07 23:16 | 29.24056 | -150.09096 | 39869 ft | 443 kts | 228° |
| 2026-05-07 23:16 | 29.21989 | -150.11613 | 40019 ft | 428 kts | 228° |
| 2026-05-07 23:17 | 29.19980 | -150.14057 | 40084 ft | 428 kts | 228° |
| 2026-05-07 23:17 | 29.15862 | -150.19069 | 40187 ft | 436 kts | 228° |
| 2026-05-07 23:18 | 29.11671 | -150.24164 | 40190 ft | 442 kts | 228° |
| 2026-05-07 23:18 | 29.07441 | -150.29297 | 40184 ft | 444 kts | 228° |
| 2026-05-07 23:19 | 29.03197 | -150.34439 | 40180 ft | 445 kts | 227° |
| 2026-05-07 23:19 | 28.98946 | -150.39584 | 40185 ft | 445 kts | 227° |
| 2026-05-07 23:20 | 28.94687 | -150.44732 | 40182 ft | 445 kts | 227° |
| 2026-05-07 23:20 | 28.90461 | -150.49833 | 40183 ft | 445 kts | 227° |
| 2026-05-07 23:21 | 28.86215 | -150.54953 | 40169 ft | 443 kts | 227° |
| 2026-05-07 23:21 | 28.81975 | -150.60059 | 40182 ft | 442 kts | 227° |
| 2026-05-07 23:22 | 28.77747 | -150.65143 | 40180 ft | 441 kts | 227° |
| 2026-05-07 23:22 | 28.73519 | -150.70222 | 40181 ft | 441 kts | 227° |
| 2026-05-07 23:23 | 28.69299 | -150.75285 | 40188 ft | 441 kts | 227° |
| 2026-05-07 23:23 | 28.65081 | -150.80339 | 40171 ft | 440 kts | 227° |
| 2026-05-07 23:24 | 28.60850 | -150.85401 | 40183 ft | 441 kts | 227° |
| 2026-05-07 23:24 | 28.56650 | -150.90421 | 40182 ft | 441 kts | 227° |
| 2026-05-07 23:25 | 28.52415 | -150.95476 | 40183 ft | 442 kts | 227° |
| 2026-05-07 23:25 | 28.48212 | -151.00487 | 40184 ft | 443 kts | 227° |
| 2026-05-07 23:26 | 28.43957 | -151.05554 | 40188 ft | 443 kts | 227° |
| 2026-05-07 23:26 | 28.39689 | -151.10629 | 40184 ft | 444 kts | 227° |
| 2026-05-07 23:27 | 28.33282 | -151.18236 | 40178 ft | 444 kts | 227° |
| 2026-05-07 23:27 | 28.29005 | -151.23307 | 40180 ft | 445 kts | 227° |
| 2026-05-07 23:28 | 28.24724 | -151.28376 | 40165 ft | 445 kts | 227° |
| 2026-05-07 23:28 | 28.20469 | -151.33408 | 40176 ft | 445 kts | 227° |
| 2026-05-07 23:29 | 28.16148 | -151.38511 | 40181 ft | 446 kts | 227° |
| 2026-05-07 23:29 | 28.11881 | -151.43546 | 40177 ft | 446 kts | 227° |
| 2026-05-07 23:30 | 28.07584 | -151.48608 | 40181 ft | 446 kts | 227° |
| 2026-05-07 23:30 | 28.03273 | -151.53682 | 40178 ft | 446 kts | 227° |
| 2026-05-07 23:31 | 27.98972 | -151.58737 | 40177 ft | 446 kts | 227° |
| 2026-05-07 23:31 | 27.94666 | -151.63791 | 40175 ft | 446 kts | 227° |
| 2026-05-07 23:32 | 27.90362 | -151.68838 | 40176 ft | 446 kts | 227° |
| 2026-05-07 23:32 | 27.86054 | -151.73882 | 40176 ft | 446 kts | 226° |
| 2026-05-07 23:33 | 27.81741 | -151.78926 | 40173 ft | 446 kts | 226° |
| 2026-05-07 23:33 | 27.77430 | -151.83962 | 40179 ft | 446 kts | 226° |
| 2026-05-07 23:34 | 27.73118 | -151.88994 | 40179 ft | 446 kts | 226° |
| 2026-05-07 23:34 | 27.68825 | -151.93996 | 40181 ft | 446 kts | 226° |
| 2026-05-07 23:35 | 27.64502 | -151.99028 | 40160 ft | 446 kts | 226° |
| 2026-05-07 23:35 | 27.60216 | -152.04011 | 40174 ft | 447 kts | 226° |
| 2026-05-07 23:36 | 27.55883 | -152.09041 | 40175 ft | 447 kts | 226° |
| 2026-05-07 23:36 | 27.51546 | -152.14071 | 40172 ft | 448 kts | 226° |
| 2026-05-07 23:37 | 27.47199 | -152.19106 | 40173 ft | 448 kts | 226° |
| 2026-05-07 23:37 | 27.42852 | -152.24136 | 40174 ft | 448 kts | 226° |
| 2026-05-07 23:38 | 27.38492 | -152.29174 | 40175 ft | 449 kts | 226° |
| 2026-05-07 23:38 | 27.34156 | -152.34178 | 40178 ft | 449 kts | 226° |
| 2026-05-07 23:39 | 27.29794 | -152.39207 | 40175 ft | 449 kts | 226° |
| 2026-05-07 23:39 | 27.25423 | -152.44240 | 40171 ft | 449 kts | 226° |
| 2026-05-07 23:40 | 27.21051 | -152.49266 | 40159 ft | 450 kts | 226° |
| 2026-05-07 23:40 | 27.16670 | -152.54299 | 40184 ft | 450 kts | 226° |
| 2026-05-07 23:41 | 27.12312 | -152.59298 | 40178 ft | 450 kts | 226° |
| 2026-05-07 23:41 | 27.07930 | -152.64320 | 40167 ft | 451 kts | 226° |
| 2026-05-07 23:42 | 27.03539 | -152.69346 | 40169 ft | 451 kts | 226° |
| 2026-05-07 23:42 | 26.99152 | -152.74361 | 40158 ft | 451 kts | 226° |
| 2026-05-07 23:43 | 26.94752 | -152.79387 | 40175 ft | 451 kts | 226° |
| 2026-05-07 23:43 | 26.90406 | -152.84475 | 40180 ft | 452 kts | 227° |
| 2026-05-07 23:44 | 26.86088 | -152.89592 | 40178 ft | 452 kts | 227° |
| 2026-05-07 23:44 | 26.81785 | -152.94678 | 40165 ft | 452 kts | 227° |
| 2026-05-07 23:45 | 26.77455 | -152.99776 | 40154 ft | 452 kts | 227° |
| 2026-05-07 23:45 | 26.73189 | -153.04786 | 40174 ft | 452 kts | 227° |
| 2026-05-07 23:46 | 26.68842 | -153.09884 | 40171 ft | 452 kts | 227° |
| 2026-05-07 23:46 | 26.64498 | -153.14973 | 40178 ft | 453 kts | 227° |
| 2026-05-07 23:47 | 26.60147 | -153.20064 | 40159 ft | 453 kts | 227° |
| 2026-05-07 23:47 | 26.55797 | -153.25149 | 40150 ft | 452 kts | 227° |
| 2026-05-07 23:48 | 26.51447 | -153.30228 | 40168 ft | 453 kts | 227° |
| 2026-05-07 23:48 | 26.47119 | -153.35275 | 40170 ft | 453 kts | 227° |
| 2026-05-07 23:49 | 26.42757 | -153.40356 | 40167 ft | 453 kts | 227° |
| 2026-05-07 23:49 | 26.38386 | -153.45440 | 40173 ft | 454 kts | 227° |
| 2026-05-07 23:50 | 26.34017 | -153.50517 | 40164 ft | 454 kts | 227° |
| 2026-05-07 23:50 | 26.29640 | -153.55598 | 40166 ft | 454 kts | 227° |
| 2026-05-07 23:51 | 26.26001 | -153.59817 | 40166 ft | 454 kts | 227° |
| 2026-05-07 23:51 | 26.21616 | -153.64896 | 40171 ft | 455 kts | 227° |
| 2026-05-07 23:52 | 26.17229 | -153.69972 | 40171 ft | 455 kts | 227° |
| 2026-05-07 23:52 | 26.12837 | -153.75047 | 40173 ft | 455 kts | 227° |
| 2026-05-07 23:53 | 26.08444 | -153.80117 | 40160 ft | 455 kts | 226° |
| 2026-05-07 23:53 | 26.04052 | -153.85181 | 40166 ft | 455 kts | 226° |
| 2026-05-07 23:54 | 25.99655 | -153.90245 | 40164 ft | 455 kts | 226° |
| 2026-05-07 23:54 | 25.95255 | -153.95305 | 40167 ft | 455 kts | 226° |
| 2026-05-07 23:55 | 25.90896 | -154.00313 | 40166 ft | 456 kts | 226° |
| 2026-05-07 23:55 | 25.86517 | -154.05339 | 40173 ft | 456 kts | 226° |
| 2026-05-07 23:56 | 25.82109 | -154.10391 | 40166 ft | 456 kts | 226° |
| 2026-05-07 23:56 | 25.77698 | -154.15443 | 40167 ft | 455 kts | 226° |
| 2026-05-07 23:57 | 25.73283 | -154.20492 | 40166 ft | 455 kts | 226° |
| 2026-05-07 23:57 | 25.68873 | -154.25530 | 40167 ft | 455 kts | 226° |
| 2026-05-07 23:58 | 25.64460 | -154.30565 | 40158 ft | 455 kts | 226° |
| 2026-05-07 23:58 | 25.60050 | -154.35592 | 40165 ft | 455 kts | 226° |
| 2026-05-07 23:59 | 25.55634 | -154.40620 | 40167 ft | 455 kts | 226° |
| 2026-05-07 23:59 | 25.51218 | -154.45642 | 40164 ft | 455 kts | 226° |
| 2026-05-08 00:00 | 25.46788 | -154.50674 | 40165 ft | 456 kts | 226° |
| 2026-05-08 00:00 | 25.42386 | -154.55669 | 40161 ft | 456 kts | 226° |
| 2026-05-08 00:01 | 25.37953 | -154.60694 | 40167 ft | 456 kts | 226° |
| 2026-05-08 00:01 | 25.33513 | -154.65721 | 40163 ft | 457 kts | 226° |
| 2026-05-08 00:02 | 25.29065 | -154.70751 | 40161 ft | 457 kts | 226° |
| 2026-05-08 00:02 | 25.24615 | -154.75777 | 40164 ft | 457 kts | 226° |
| 2026-05-08 00:03 | 25.20166 | -154.80798 | 40161 ft | 458 kts | 226° |
| 2026-05-08 00:03 | 25.15706 | -154.85825 | 40159 ft | 458 kts | 226° |
| 2026-05-08 00:04 | 25.11243 | -154.90849 | 40163 ft | 459 kts | 226° |
| 2026-05-08 00:04 | 25.06775 | -154.95875 | 40161 ft | 459 kts | 226° |
| 2026-05-08 00:05 | 25.02381 | -155.00811 | 40162 ft | 459 kts | 226° |
| 2026-05-08 00:05 | 24.97905 | -155.05834 | 40151 ft | 459 kts | 226° |
| 2026-05-08 00:06 | 24.93425 | -155.10856 | 40148 ft | 459 kts | 226° |
| 2026-05-08 00:06 | 24.88943 | -155.15874 | 40156 ft | 460 kts | 226° |
| 2026-05-08 00:07 | 24.84454 | -155.20895 | 40158 ft | 460 kts | 226° |
| 2026-05-08 00:07 | 24.79963 | -155.25913 | 40159 ft | 460 kts | 226° |
| 2026-05-08 00:08 | 24.75497 | -155.30896 | 40159 ft | 460 kts | 226° |
| 2026-05-08 00:08 | 24.71002 | -155.35907 | 40146 ft | 460 kts | 226° |
| 2026-05-08 00:09 | 24.66502 | -155.40919 | 40155 ft | 460 kts | 226° |
| 2026-05-08 00:09 | 24.62002 | -155.45924 | 40153 ft | 460 kts | 226° |
| 2026-05-08 00:10 | 24.57500 | -155.50927 | 40153 ft | 460 kts | 226° |
| 2026-05-08 00:10 | 24.52996 | -155.55926 | 40150 ft | 460 kts | 226° |
| 2026-05-08 00:11 | 24.48483 | -155.60930 | 40150 ft | 460 kts | 226° |
| 2026-05-08 00:11 | 24.43974 | -155.65923 | 40149 ft | 460 kts | 226° |
| 2026-05-08 00:12 | 24.39459 | -155.70919 | 40147 ft | 461 kts | 226° |
| 2026-05-08 00:12 | 24.34971 | -155.75878 | 40150 ft | 461 kts | 226° |
| 2026-05-08 00:13 | 24.30452 | -155.80868 | 40145 ft | 461 kts | 226° |
| 2026-05-08 00:13 | 24.25936 | -155.85848 | 40144 ft | 461 kts | 226° |
| 2026-05-08 00:14 | 24.21415 | -155.90828 | 40143 ft | 461 kts | 226° |
| 2026-05-08 00:14 | 24.16897 | -155.95800 | 40145 ft | 461 kts | 226° |
| 2026-05-08 00:15 | 24.12437 | -156.00703 | 40141 ft | 461 kts | 226° |
| 2026-05-08 00:15 | 24.07912 | -156.05672 | 40142 ft | 460 kts | 226° |
| 2026-05-08 00:16 | 24.03387 | -156.10635 | 40139 ft | 460 kts | 226° |
| 2026-05-08 00:16 | 23.98865 | -156.15590 | 40134 ft | 460 kts | 226° |
| 2026-05-08 00:17 | 23.94342 | -156.20542 | 40131 ft | 460 kts | 226° |
| 2026-05-08 00:17 | 23.89815 | -156.25492 | 40137 ft | 460 kts | 226° |
| 2026-05-08 00:18 | 23.85319 | -156.30404 | 40135 ft | 460 kts | 226° |
| 2026-05-08 00:18 | 23.80792 | -156.35343 | 40135 ft | 460 kts | 226° |
| 2026-05-08 00:19 | 23.76255 | -156.40289 | 40138 ft | 460 kts | 226° |
| 2026-05-08 00:19 | 23.71723 | -156.45224 | 40129 ft | 460 kts | 227° |
| 2026-05-08 00:20 | 23.67198 | -156.50147 | 40134 ft | 460 kts | 226° |
| 2026-05-08 00:20 | 23.62663 | -156.55075 | 40131 ft | 460 kts | 226° |
| 2026-05-08 00:21 | 23.58126 | -156.60001 | 40134 ft | 460 kts | 226° |
| 2026-05-08 00:21 | 23.53588 | -156.64921 | 40130 ft | 460 kts | 226° |
| 2026-05-08 00:22 | 23.49052 | -156.69836 | 40131 ft | 460 kts | 226° |
| 2026-05-08 00:22 | 23.44538 | -156.74721 | 40132 ft | 460 kts | 226° |
| 2026-05-08 00:23 | 23.39989 | -156.79639 | 40125 ft | 460 kts | 226° |
| 2026-05-08 00:23 | 23.35445 | -156.84547 | 40130 ft | 460 kts | 226° |
| 2026-05-08 00:24 | 23.30902 | -156.89448 | 40137 ft | 460 kts | 226° |
| 2026-05-08 00:24 | 23.26356 | -156.94349 | 40127 ft | 460 kts | 226° |
| 2026-05-08 00:25 | 23.21812 | -156.99242 | 40122 ft | 460 kts | 227° |
| 2026-05-08 00:25 | 23.17349 | -157.04045 | 40132 ft | 459 kts | 227° |
| 2026-05-08 00:26 | 23.12786 | -157.08911 | 40125 ft | 460 kts | 224° |
| 2026-05-08 00:26 | 23.07790 | -157.13276 | 40134 ft | 461 kts | 219° |
| 2026-05-08 00:27 | 23.02602 | -157.17405 | 40125 ft | 462 kts | 219° |
| 2026-05-08 00:27 | 22.97455 | -157.21557 | 40113 ft | 462 kts | 220° |
| 2026-05-08 00:28 | 22.92335 | -157.25769 | 40120 ft | 461 kts | 220° |
| 2026-05-08 00:28 | 22.87239 | -157.29993 | 40124 ft | 461 kts | 220° |
| 2026-05-08 00:29 | 22.82140 | -157.34217 | 40119 ft | 461 kts | 220° |
| 2026-05-08 00:29 | 22.77038 | -157.38437 | 40118 ft | 461 kts | 220° |
| 2026-05-08 00:30 | 22.71929 | -157.42656 | 40120 ft | 461 kts | 220° |
| 2026-05-08 00:30 | 22.66857 | -157.46839 | 40117 ft | 461 kts | 220° |
| 2026-05-08 00:31 | 22.61753 | -157.51046 | 40120 ft | 461 kts | 220° |
| 2026-05-08 00:31 | 22.56638 | -157.55258 | 40121 ft | 461 kts | 220° |
| 2026-05-08 00:32 | 22.51530 | -157.59459 | 40118 ft | 461 kts | 220° |
| 2026-05-08 00:32 | 22.46427 | -157.63652 | 39826 ft | 461 kts | 220° |
| 2026-05-08 00:33 | 22.43859 | -157.65762 | 39059 ft | 464 kts | 220° |
| 2026-05-08 00:33 | 22.41276 | -157.67884 | 37985 ft | 469 kts | 220° |
| 2026-05-08 00:33 | 22.38671 | -157.70023 | 36943 ft | 470 kts | 220° |
| 2026-05-08 00:33 | 22.36115 | -157.72116 | 35917 ft | 454 kts | 219° |
| 2026-05-08 00:34 | 22.33620 | -157.74157 | 34701 ft | 446 kts | 219° |
| 2026-05-08 00:34 | 22.31190 | -157.76147 | 33305 ft | 442 kts | 219° |
| 2026-05-08 00:34 | 22.28751 | -157.78145 | 31913 ft | 438 kts | 218° |
| 2026-05-08 00:34 | 22.26338 | -157.80121 | 30668 ft | 432 kts | 218° |
| 2026-05-08 00:35 | 22.23968 | -157.82060 | 29490 ft | 423 kts | 218° |
| 2026-05-08 00:35 | 22.21648 | -157.83958 | 28273 ft | 415 kts | 218° |
| 2026-05-08 00:35 | 22.19369 | -157.85821 | 27129 ft | 407 kts | 218° |
| 2026-05-08 00:35 | 22.17126 | -157.87654 | 25935 ft | 402 kts | 218° |
| 2026-05-08 00:36 | 22.14911 | -157.89463 | 24891 ft | 395 kts | 218° |
| 2026-05-08 00:36 | 22.12726 | -157.91248 | 23776 ft | 392 kts | 218° |
| 2026-05-08 00:36 | 22.10566 | -157.93011 | 22628 ft | 386 kts | 217° |
| 2026-05-08 00:36 | 22.08442 | -157.94743 | 21545 ft | 385 kts | 218° |
| 2026-05-08 00:37 | 22.06994 | -157.95925 | 20836 ft | 402 kts | 218° |
| 2026-05-08 00:37 | 22.03936 | -157.98419 | 20111 ft | 417 kts | 218° |
| 2026-05-08 00:37 | 22.01675 | -158.00261 | 19764 ft | 420 kts | 218° |
| 2026-05-08 00:38 | 21.97813 | -158.03405 | 19427 ft | 419 kts | 217° |
| 2026-05-08 00:38 | 21.94738 | -158.05909 | 19053 ft | 417 kts | 218° |
| 2026-05-08 00:38 | 21.93155 | -158.07197 | 18450 ft | 424 kts | 218° |
| 2026-05-08 00:38 | 21.90799 | -158.09114 | 17602 ft | 423 kts | 218° |
| 2026-05-08 00:39 | 21.88453 | -158.11020 | 16792 ft | 421 kts | 218° |
| 2026-05-08 00:39 | 21.86164 | -158.12881 | 16149 ft | 414 kts | 218° |
| 2026-05-08 00:39 | 21.83892 | -158.14725 | 15710 ft | 403 kts | 218° |
| 2026-05-08 00:39 | 21.81679 | -158.16522 | 15153 ft | 396 kts | 218° |
| 2026-05-08 00:40 | 21.79502 | -158.18288 | 14647 ft | 388 kts | 218° |
| 2026-05-08 00:40 | 21.77360 | -158.20027 | 14100 ft | 383 kts | 218° |
| 2026-05-08 00:40 | 21.75246 | -158.21742 | 13574 ft | 376 kts | 218° |
| 2026-05-08 00:40 | 21.73166 | -158.23430 | 12862 ft | 374 kts | 218° |
| 2026-05-08 00:41 | 21.71097 | -158.25108 | 12393 ft | 368 kts | 218° |
| 2026-05-08 00:41 | 21.69095 | -158.26728 | 12277 ft | 352 kts | 218° |
| 2026-05-08 00:41 | 21.67179 | -158.28278 | 12176 ft | 338 kts | 218° |
| 2026-05-08 00:41 | 21.65292 | -158.29684 | 12030 ft | 320 kts | 212° |
| 2026-05-08 00:42 | 21.63430 | -158.30789 | 11675 ft | 293 kts | 210° |
| 2026-05-08 00:42 | 21.61674 | -158.31785 | 11039 ft | 281 kts | 209° |
| 2026-05-08 00:42 | 21.59975 | -158.32774 | 10294 ft | 275 kts | 210° |
| 2026-05-08 00:42 | 21.58312 | -158.33760 | 9468 ft | 271 kts | 210° |
| 2026-05-08 00:43 | 21.56677 | -158.34738 | 8595 ft | 269 kts | 210° |
| 2026-05-08 00:43 | 21.54989 | -158.35557 | 7709 ft | 267 kts | 192° |
| 2026-05-08 00:43 | 21.53152 | -158.35520 | 6871 ft | 265 kts | 166° |
| 2026-05-08 00:43 | 21.51496 | -158.34772 | 6098 ft | 260 kts | 150° |
| 2026-05-08 00:44 | 21.49923 | -158.33821 | 5261 ft | 259 kts | 149° |
| 2026-05-08 00:44 | 21.48364 | -158.32868 | 4525 ft | 257 kts | 149° |
| 2026-05-08 00:44 | 21.46797 | -158.31911 | 4285 ft | 261 kts | 149° |
| 2026-05-08 00:44 | 21.45197 | -158.30939 | 4122 ft | 266 kts | 148° |
| 2026-05-08 00:45 | 21.43597 | -158.29970 | 4017 ft | 259 kts | 149° |
| 2026-05-08 00:45 | 21.42057 | -158.29042 | 3993 ft | 250 kts | 148° |
| 2026-05-08 00:45 | 21.40545 | -158.28131 | 4004 ft | 250 kts | 149° |
| 2026-05-08 00:45 | 21.39006 | -158.27205 | 4015 ft | 257 kts | 149° |
| 2026-05-08 00:46 | 21.37436 | -158.26262 | 4019 ft | 260 kts | 149° |
| 2026-05-08 00:46 | 21.35861 | -158.25318 | 4011 ft | 259 kts | 150° |
| 2026-05-08 00:46 | 21.34399 | -158.24260 | 4000 ft | 248 kts | 130° |
| 2026-05-08 00:46 | 21.33572 | -158.22651 | 3951 ft | 250 kts | 103° |
| 2026-05-08 00:47 | 21.33329 | -158.20802 | 3891 ft | 248 kts | 94° |
| 2026-05-08 00:47 | 21.33169 | -158.19004 | 3776 ft | 236 kts | 94° |
| 2026-05-08 00:47 | 21.33011 | -158.17303 | 3683 ft | 223 kts | 93° |
| 2026-05-08 00:47 | 21.32860 | -158.15693 | 3575 ft | 210 kts | 94° |
| 2026-05-08 00:48 | 21.32717 | -158.14191 | 3480 ft | 193 kts | 94° |
| 2026-05-08 00:48 | 21.32591 | -158.12806 | 3327 ft | 185 kts | 91° |
| 2026-05-08 00:48 | 21.32538 | -158.11464 | 3114 ft | 181 kts | 90° |
| 2026-05-08 00:48 | 21.32524 | -158.10133 | 2884 ft | 175 kts | 86° |
| 2026-05-08 00:49 | 21.32521 | -158.08854 | 2643 ft | 168 kts | 86° |
| 2026-05-08 00:49 | 21.32521 | -158.07627 | 2426 ft | 162 kts | 86° |
| 2026-05-08 00:49 | 21.32522 | -158.06436 | 2219 ft | 159 kts | 86° |
| 2026-05-08 00:49 | 21.32522 | -158.05275 | 2032 ft | 153 kts | 85° |
| 2026-05-08 00:50 | 21.32522 | -158.04172 | 1808 ft | 140 kts | 83° |
| 2026-05-08 00:50 | 21.32522 | -158.03170 | 1633 ft | 133 kts | 84° |
| 2026-05-08 00:50 | 21.32523 | -158.02164 | 1484 ft | 137 kts | 84° |
| 2026-05-08 00:50 | 21.32523 | -158.01130 | 1287 ft | 139 kts | 85° |
| 2026-05-08 00:51 | 21.32524 | -158.00108 | 1113 ft | 136 kts | 85° |
| 2026-05-08 00:51 | 21.32525 | -157.99059 | 914 ft | 142 kts | 89° |
| 2026-05-08 00:51 | 21.32523 | -157.98000 | 722 ft | 143 kts | 89° |
| 2026-05-08 00:51 | 21.32525 | -157.96941 | 537 ft | 142 kts | 90° |
| 2026-05-08 00:52 | 21.32544 | -157.95883 | 368 ft | 142 kts | 90° |
| 2026-05-08 00:52 | 21.32536 | -157.94815 | 212 ft | 144 kts | 92° |
| 2026-05-08 00:52 | 21.32538 | -157.93767 | 70 ft | 140 kts | 90° |
| 2026-05-08 00:52 | 21.32522 | -157.92777 | 29 ft | 120 kts | 88° |
| 2026-05-08 00:53 | 21.32524 | -157.92019 | 29 ft | 88 kts | 89° |
| 2026-05-08 00:53 | 21.32524 | -157.91435 | 28 ft | 67 kts | 89° |
| 2026-05-08 00:53 | 21.32532 | -157.91122 | 28 ft | 32 kts | 81° |
| 2026-05-08 00:53 | 21.32543 | -157.90851 | 28 ft | 37 kts | 68° |
| 2026-05-08 00:54 | 21.32700 | -157.90622 | 28 ft | 19 kts | 53° |
| 2026-05-08 00:54 | 21.32762 | -157.90554 | 28 ft | 4 kts | 10° |
| 2026-05-08 00:54 | 21.32851 | -157.90614 | 28 ft | 27 kts | 322° |
| 2026-05-08 00:54 | 21.32959 | -157.90701 | 28 ft | 17 kts | 327° |
| 2026-05-08 00:55 | 21.33041 | -157.90820 | 28 ft | 24 kts | 267° |
| 2026-05-08 00:55 | 21.32977 | -157.90953 | 28 ft | 27 kts | 231° |
| 2026-05-08 00:55 | 21.32856 | -157.91129 | 28 ft | 12 kts | 233° |
| 2026-05-08 00:55 | 21.32803 | -157.91208 | 28 ft | 14 kts | 234° |
| 2026-05-08 00:56 | 21.32774 | -157.91305 | 28 ft | 14 kts | 268° |
| 2026-05-08 00:56 | 21.32776 | -157.91416 | 28 ft | 15 kts | 271° |
| 2026-05-08 00:56 | 21.32807 | -157.91503 | 28 ft | 12 kts | 341° |
| 2026-05-08 00:56 | 21.32863 | -157.91505 | 29 ft | 0 kts | 0° |